< < Back
Terminal Aerodrome Forecast


Current Version              Previous Versions:   1  2  3  4  5  6  7  8  9  

Terminal Aerodrome Forecast

814
FTUS42 KCHS 200500
TAFSAV
TAF
KSAV 200537Z 2006/2106 24007KT P6SM SKC
     FM201400 28009KT P6SM SCT040
     FM202300 22004KT P6SM SKC=



Latest METAR

091
SAUS80 KWBC 201800 RRC
MTRSAV
METAR KSAV 201753Z 29010G17KT 10SM SCT050 SCT250 34/22 A3001 RMK AO2
SLP163 T03390222 10339 20233 58008 $


USA.gov is the U.S. government's official web portal to all federal, state and local government web resources and services.